createdAt,value
2023-03-02T00:01:44.888Z,4.00
2023-03-02T00:04:28.009Z,4.22
2023-03-02T00:07:08.014Z,4.40
2023-03-02T00:09:34.948Z,4.20
2023-03-02T00:12:01.612Z,5.00
2023-03-02T00:14:28.156Z,3.80
2023-03-02T00:16:54.703Z,4.45
2023-03-02T00:19:21.654Z,4.30
2023-03-02T00:21:48.245Z,4.50
2023-03-02T00:24:15.793Z,4.45
2023-03-02T00:26:42.568Z,4.40
2023-03-02T00:29:09.263Z,4.20
2023-03-02T00:31:35.913Z,5.03
2023-03-02T00:34:02.489Z,4.68
2023-03-02T00:36:29.066Z,4.35
2023-03-02T00:38:57.448Z,3.97
2023-03-02T00:41:24.120Z,4.70
2023-03-02T00:43:50.902Z,4.30
2023-03-02T00:46:20.179Z,4.45
2023-03-02T00:48:46.856Z,4.70
2023-03-02T00:51:13.956Z,4.97
2023-03-02T00:53:40.515Z,4.50
2023-03-02T00:56:08.161Z,4.85
2023-03-02T00:58:37.791Z,4.53
2023-03-02T01:01:09.866Z,5.13
2023-03-02T01:03:39.063Z,4.55
2023-03-02T01:06:06.180Z,4.80
2023-03-02T01:08:32.796Z,4.40
2023-03-02T01:11:01.513Z,4.75
2023-03-02T01:13:28.682Z,4.70
2023-03-02T01:16:02.973Z,5.32
2023-03-02T01:18:29.899Z,4.93
2023-03-02T01:21:07.722Z,5.35
2023-03-02T01:23:34.679Z,5.32
2023-03-02T01:26:01.343Z,6.50
2023-03-02T01:28:28.194Z,6.43
2023-03-02T01:30:54.786Z,6.35
2023-03-02T01:33:21.771Z,6.88
2023-03-02T01:35:48.855Z,6.18
2023-03-02T01:38:16.001Z,6.00
2023-03-02T01:40:43.740Z,5.93
2023-03-02T01:43:14.485Z,5.57
2023-03-02T01:45:45.758Z,5.63
2023-03-02T01:48:17.201Z,6.70
2023-03-02T01:50:45.305Z,6.28
2023-03-02T01:53:13.526Z,6.60
2023-03-02T01:55:40.478Z,6.63
2023-03-02T01:58:07.581Z,6.75
2023-03-02T02:00:37.598Z,7.30
2023-03-02T02:03:21.156Z,6.40
2023-03-02T02:06:06.614Z,7.10
2023-03-02T02:08:33.887Z,6.20
2023-03-02T02:11:00.933Z,6.18
2023-03-02T02:13:27.830Z,6.03
2023-03-02T02:15:54.463Z,6.13
2023-03-02T02:18:21.062Z,6.32
2023-03-02T02:20:49.258Z,6.03
2023-03-02T02:23:27.372Z,6.05
2023-03-02T02:25:55.381Z,6.00
2023-03-02T02:28:26.507Z,5.93
2023-03-02T02:31:07.697Z,5.47
2023-03-02T02:33:35.445Z,6.18
2023-03-02T02:36:06.641Z,6.50
2023-03-02T02:38:34.885Z,6.30
2023-03-02T02:41:03.900Z,6.30
2023-03-02T02:43:33.845Z,6.00
2023-03-02T02:46:00.916Z,6.60
2023-03-02T02:48:31.141Z,7.28
2023-03-02T02:51:02.944Z,6.57
2023-03-02T02:53:44.230Z,8.00
2023-03-02T02:56:11.682Z,7.93
2023-03-02T02:58:44.754Z,8.07
2023-03-02T03:01:16.047Z,7.80
2023-03-02T03:03:46.559Z,7.80
2023-03-02T03:06:18.231Z,7.90
2023-03-02T03:08:52.135Z,7.60
2023-03-02T03:11:30.591Z,8.07
2023-03-02T03:14:10.626Z,7.75
2023-03-02T03:16:38.901Z,7.90
2023-03-02T03:19:27.448Z,7.90
2023-03-02T03:21:56.535Z,7.68
2023-03-02T03:24:26.291Z,8.25
2023-03-02T03:26:56.428Z,7.57
2023-03-02T03:29:25.365Z,8.90
2023-03-02T03:31:55.653Z,7.70
2023-03-02T03:34:23.389Z,8.68
2023-03-02T03:36:50.101Z,8.25
2023-03-02T03:39:17.507Z,8.73
2023-03-02T03:41:44.623Z,8.15
2023-03-02T03:44:12.051Z,8.38
2023-03-02T03:46:41.174Z,7.60
2023-03-02T03:49:08.018Z,7.93
2023-03-02T03:51:35.578Z,8.40
2023-03-02T03:54:05.717Z,8.25
2023-03-02T03:56:40.184Z,8.23
2023-03-02T03:59:08.876Z,8.10
2023-03-02T04:01:44.088Z,7.60
2023-03-02T04:04:14.265Z,8.23
2023-03-02T04:06:41.020Z,8.38
2023-03-02T04:09:08.084Z,8.07
2023-03-02T04:11:38.756Z,8.55
2023-03-02T04:14:06.115Z,8.20
2023-03-02T04:16:33.514Z,8.82
2023-03-02T04:19:01.234Z,9.20
2023-03-02T04:21:28.334Z,8.50
2023-03-02T04:23:55.760Z,8.57
2023-03-02T04:26:23.204Z,8.55
2023-03-02T04:28:51.012Z,9.23
2023-03-02T04:31:18.624Z,7.88
2023-03-02T04:33:45.385Z,8.07
2023-03-02T04:36:12.530Z,9.75
2023-03-02T04:38:39.102Z,9.25
2023-03-02T04:41:05.935Z,8.70
2023-03-02T04:43:32.579Z,9.23
2023-03-02T04:45:59.257Z,9.43
2023-03-02T04:48:26.091Z,9.35
2023-03-02T04:50:52.678Z,9.75
2023-03-02T04:53:19.288Z,8.98
2023-03-02T04:55:45.902Z,9.02
2023-03-02T04:58:12.481Z,8.80
2023-03-02T05:00:39.134Z,9.38
2023-03-02T05:03:06.366Z,9.52
2023-03-02T05:05:33.331Z,9.15
2023-03-02T05:08:00.156Z,10.43
2023-03-02T05:10:27.863Z,11.07
2023-03-02T05:13:05.212Z,9.75
2023-03-02T05:15:35.105Z,10.05
2023-03-02T05:18:02.240Z,11.10
2023-03-02T05:20:30.432Z,9.85
2023-03-02T05:23:00.688Z,10.90
2023-03-02T05:25:28.772Z,10.23
2023-03-02T05:27:55.751Z,9.82
2023-03-02T05:30:22.687Z,10.75
2023-03-02T05:32:53.010Z,10.18
2023-03-02T05:35:21.337Z,10.48
2023-03-02T05:37:48.018Z,10.50
2023-03-02T05:40:18.871Z,10.05
2023-03-02T05:42:45.824Z,10.82
2023-03-02T05:45:22.948Z,10.63
2023-03-02T05:47:49.723Z,10.13
2023-03-02T05:50:16.803Z,9.73
2023-03-02T05:52:45.428Z,10.75
2023-03-02T05:55:13.834Z,10.25
2023-03-02T05:57:40.773Z,10.00
2023-03-02T06:00:10.221Z,10.63
2023-03-02T06:02:40.115Z,10.50
2023-03-02T06:05:10.999Z,10.85
2023-03-02T06:07:37.570Z,10.25
2023-03-02T06:10:05.859Z,11.45
2023-03-02T06:12:32.539Z,11.63
2023-03-02T06:14:59.534Z,12.05
2023-03-02T06:17:26.573Z,11.65
2023-03-02T06:19:53.167Z,11.73
2023-03-02T06:22:19.751Z,11.80
2023-03-02T06:24:46.392Z,12.00
2023-03-02T06:27:13.642Z,11.38
2023-03-02T06:29:40.293Z,11.35
2023-03-02T06:32:07.281Z,10.45
2023-03-02T06:34:35.475Z,11.40
2023-03-02T06:37:02.424Z,11.75
2023-03-02T06:39:30.190Z,11.18
2023-03-02T06:41:56.774Z,11.30
2023-03-02T06:44:23.387Z,10.95
2023-03-02T06:46:49.965Z,11.80
2023-03-02T06:49:16.554Z,12.27
2023-03-02T06:51:43.207Z,12.40
2023-03-02T06:54:09.850Z,12.02
2023-03-02T06:56:36.435Z,11.57
2023-03-02T06:59:03.079Z,13.10
2023-03-02T07:01:35.773Z,12.75
2023-03-02T07:04:03.231Z,12.70
2023-03-02T07:06:29.854Z,13.68
2023-03-02T07:08:56.405Z,13.27
2023-03-02T07:11:23.034Z,12.98
2023-03-02T07:13:49.815Z,15.05
2023-03-02T07:16:16.423Z,15.80
2023-03-02T07:18:43.140Z,14.73
2023-03-02T07:21:09.719Z,15.50
2023-03-02T07:23:36.309Z,17.90
2023-03-02T07:26:02.909Z,18.45
2023-03-02T07:28:29.510Z,18.92
2023-03-02T07:30:56.126Z,19.60
2023-03-02T07:33:22.770Z,20.20
2023-03-02T07:35:49.368Z,20.48
2023-03-02T07:38:16.008Z,20.00
2023-03-02T07:40:43.216Z,19.75
2023-03-02T07:43:10.160Z,18.40
2023-03-02T07:45:37.605Z,20.42
2023-03-02T07:48:04.241Z,18.33
2023-03-02T07:50:31.267Z,18.88
2023-03-02T07:52:59.891Z,18.92
2023-03-02T07:55:26.593Z,18.88
2023-03-02T07:57:53.246Z,18.85
2023-03-02T08:00:20.620Z,18.38
2023-03-02T08:02:47.208Z,18.35
2023-03-02T08:05:14.129Z,18.80
2023-03-02T08:07:41.027Z,18.20
2023-03-02T08:10:07.820Z,17.63
2023-03-02T08:12:34.384Z,18.20
2023-03-02T08:15:03.092Z,19.00
2023-03-02T08:17:30.211Z,29.48
2023-03-02T08:19:56.752Z,20.10
2023-03-02T08:22:23.546Z,18.48
2023-03-02T08:24:50.184Z,25.83
2023-03-02T08:27:17.750Z,23.60
2023-03-02T08:29:44.304Z,19.73
2023-03-02T08:32:10.996Z,20.38
2023-03-02T08:34:37.654Z,19.83
2023-03-02T08:37:04.309Z,20.15
2023-03-02T08:39:32.189Z,19.02
2023-03-02T08:41:59.061Z,18.42
2023-03-02T08:44:25.722Z,19.70
2023-03-02T08:46:52.283Z,20.80
2023-03-02T08:49:19.535Z,19.17
2023-03-02T08:51:46.772Z,19.27
2023-03-02T08:54:13.457Z,21.23
2023-03-02T08:56:40.397Z,18.70
2023-03-02T08:59:09.886Z,19.27
2023-03-02T09:01:37.976Z,19.20
2023-03-02T09:04:07.253Z,19.15
2023-03-02T09:06:36.739Z,19.80
2023-03-02T09:09:04.270Z,19.83
2023-03-02T09:11:31.097Z,18.08
2023-03-02T09:13:57.909Z,18.23
2023-03-02T09:16:26.096Z,19.52
2023-03-02T09:18:53.920Z,18.75
2023-03-02T09:21:20.880Z,18.83
2023-03-02T09:23:47.485Z,19.90
2023-03-02T09:26:14.152Z,20.35
2023-03-02T09:28:40.799Z,21.05
2023-03-02T09:31:08.526Z,21.58
2023-03-02T09:33:35.529Z,20.45
2023-03-02T09:36:07.176Z,19.98
2023-03-02T09:38:33.788Z,20.75
2023-03-02T09:41:19.985Z,20.77
2023-03-02T09:44:01.359Z,19.55
2023-03-02T09:46:39.692Z,20.85
2023-03-02T09:49:37.136Z,21.55
2023-03-02T09:52:13.998Z,21.27
2023-03-02T09:54:40.903Z,20.48
2023-03-02T09:57:27.193Z,20.17
2023-03-02T10:00:18.053Z,19.25
2023-03-02T10:02:51.721Z,20.45
2023-03-02T10:05:31.868Z,18.67
2023-03-02T10:07:59.497Z,20.20
2023-03-02T10:11:03.248Z,19.48
2023-03-02T10:13:34.763Z,20.52
2023-03-02T10:16:12.425Z,18.90
2023-03-02T10:18:47.181Z,20.65
2023-03-02T10:21:49.649Z,19.83
2023-03-02T10:25:02.950Z,19.45
2023-03-02T10:27:42.449Z,18.27
2023-03-02T10:30:31.127Z,19.63
2023-03-02T10:33:01.258Z,19.40
2023-03-02T10:35:29.107Z,19.80
2023-03-02T10:38:00.342Z,21.33
2023-03-02T10:40:46.086Z,21.58
2023-03-02T10:43:34.188Z,20.20
2023-03-02T10:46:03.123Z,20.63
2023-03-02T10:48:29.736Z,21.33
2023-03-02T10:50:58.569Z,22.23
2023-03-02T10:53:25.414Z,22.92
2023-03-02T10:55:53.309Z,21.58
2023-03-02T10:58:31.975Z,22.73
2023-03-02T11:01:07.379Z,22.58
2023-03-02T11:03:34.285Z,22.17
2023-03-02T11:06:17.467Z,22.08
2023-03-02T11:08:44.130Z,21.42
2023-03-02T11:11:37.734Z,22.55
2023-03-02T11:14:16.291Z,23.02
2023-03-02T11:16:43.621Z,22.70
2023-03-02T11:19:16.502Z,22.92
2023-03-02T11:21:56.476Z,21.77
2023-03-02T11:25:01.697Z,21.63
2023-03-02T11:27:31.232Z,20.13
2023-03-02T11:30:12.057Z,18.73
2023-03-02T11:32:50.004Z,19.00
2023-03-02T11:35:22.846Z,19.02
2023-03-02T11:37:55.253Z,18.20
2023-03-02T11:40:32.184Z,18.13
2023-03-02T11:43:00.459Z,18.15
2023-03-02T11:45:31.673Z,17.13
2023-03-02T11:48:04.176Z,17.83
2023-03-02T11:50:33.150Z,17.20
2023-03-02T11:53:01.991Z,17.83
2023-03-02T11:55:34.153Z,17.52
2023-03-02T11:58:03.423Z,16.33
2023-03-02T12:00:42.205Z,16.67
2023-03-02T12:03:14.725Z,16.17
2023-03-02T12:05:45.887Z,16.45
2023-03-02T12:08:15.542Z,16.40
2023-03-02T12:10:44.332Z,15.82
2023-03-02T12:13:17.861Z,15.57
2023-03-02T12:15:50.864Z,15.65
2023-03-02T12:18:23.514Z,15.43
2023-03-02T12:21:16.051Z,15.38
2023-03-02T12:23:45.525Z,15.00
2023-03-02T12:26:21.248Z,15.23
2023-03-02T12:29:10.888Z,14.40
2023-03-02T12:31:46.251Z,14.10
2023-03-02T12:34:33.797Z,14.80
2023-03-02T12:37:11.881Z,14.23
2023-03-02T12:40:03.448Z,13.73
2023-03-02T12:43:07.258Z,14.27
2023-03-02T12:45:46.374Z,14.18
2023-03-02T12:48:25.281Z,13.85
2023-03-02T12:50:52.851Z,12.23
2023-03-02T12:53:20.010Z,12.52
2023-03-02T12:55:46.950Z,12.68
2023-03-02T12:58:33.649Z,13.30
2023-03-02T13:01:02.296Z,12.63
2023-03-02T13:03:30.976Z,12.48
2023-03-02T13:06:03.468Z,12.20
2023-03-02T13:08:31.589Z,12.75
2023-03-02T13:11:00.866Z,12.32
2023-03-02T13:13:41.595Z,11.60
2023-03-02T13:16:28.809Z,12.55
2023-03-02T13:18:58.270Z,12.00
2023-03-02T13:21:32.767Z,13.02
2023-03-02T13:23:59.641Z,13.23
2023-03-02T13:26:37.127Z,12.27
2023-03-02T13:29:14.716Z,12.20
2023-03-02T13:31:41.387Z,13.07
2023-03-02T13:34:20.786Z,13.02
2023-03-02T13:36:47.364Z,12.32
2023-03-02T13:39:22.527Z,13.35
2023-03-02T13:41:54.425Z,12.52
2023-03-02T13:44:26.282Z,12.63
2023-03-02T13:46:52.909Z,12.75
2023-03-02T13:49:30.506Z,12.40
2023-03-02T13:52:02.303Z,12.57
2023-03-02T13:54:31.181Z,12.05
2023-03-02T13:56:59.262Z,12.85
2023-03-02T13:59:26.054Z,11.93
2023-03-02T14:01:52.678Z,12.23
2023-03-02T14:04:24.033Z,11.88
2023-03-02T14:06:52.129Z,12.57
2023-03-02T14:09:19.232Z,11.35
2023-03-02T14:11:48.276Z,11.73
2023-03-02T14:14:17.894Z,12.10
2023-03-02T14:16:44.565Z,11.55
2023-03-02T14:19:13.933Z,12.77
2023-03-02T14:21:41.202Z,11.77
2023-03-02T14:24:07.794Z,13.02
2023-03-02T14:26:45.219Z,11.80
2023-03-02T14:29:31.607Z,13.57
2023-03-02T14:32:00.706Z,12.30
2023-03-02T14:34:27.682Z,13.30
2023-03-02T14:36:58.625Z,12.27
2023-03-02T14:39:36.441Z,12.85
2023-03-02T14:42:04.175Z,13.63
2023-03-02T14:44:30.794Z,12.48
2023-03-02T14:46:58.284Z,12.90
2023-03-02T14:49:25.416Z,11.15
2023-03-02T14:51:59.336Z,12.07
2023-03-02T14:54:26.447Z,11.75
2023-03-02T14:56:53.134Z,12.10
2023-03-02T14:59:19.733Z,12.40
2023-03-02T15:01:46.487Z,12.32
2023-03-02T15:04:13.216Z,11.93
2023-03-02T15:06:41.058Z,11.77
2023-03-02T15:09:08.533Z,11.50
2023-03-02T15:11:35.516Z,11.27
2023-03-02T15:14:02.408Z,10.88
2023-03-02T15:16:29.062Z,10.48
2023-03-02T15:18:57.751Z,10.63
2023-03-02T15:21:25.216Z,10.07
2023-03-02T15:23:52.006Z,10.52
2023-03-02T15:26:18.659Z,11.15
2023-03-02T15:28:48.086Z,10.93
2023-03-02T15:31:16.352Z,10.85
2023-03-02T15:33:45.246Z,10.30
2023-03-02T15:36:12.781Z,10.60
2023-03-02T15:38:39.729Z,11.10
2023-03-02T15:41:13.163Z,11.23
2023-03-02T15:43:40.069Z,10.02
2023-03-02T15:46:06.731Z,11.48
2023-03-02T15:48:33.278Z,10.80
2023-03-02T15:51:04.837Z,10.68
2023-03-02T15:53:34.658Z,10.13
2023-03-02T15:56:10.879Z,10.45
2023-03-02T15:58:37.469Z,11.13
2023-03-02T16:01:08.479Z,11.10
2023-03-02T16:03:35.189Z,10.93
2023-03-02T16:06:02.023Z,11.02
2023-03-02T16:08:28.627Z,10.35
2023-03-02T16:10:59.744Z,11.73
2023-03-02T16:13:26.957Z,10.98
2023-03-02T16:15:53.857Z,12.00
2023-03-02T16:18:20.430Z,11.95
2023-03-02T16:20:47.023Z,13.50
2023-03-02T16:23:13.733Z,13.23
2023-03-02T16:25:43.526Z,11.75
2023-03-02T16:28:11.661Z,12.68
2023-03-02T16:30:39.525Z,11.43
2023-03-02T16:33:07.967Z,12.20
2023-03-02T16:35:35.275Z,11.98
2023-03-02T16:38:02.162Z,12.45
2023-03-02T16:40:29.387Z,11.85
2023-03-02T16:42:55.949Z,12.90
2023-03-02T16:45:22.687Z,12.32
2023-03-02T16:47:49.827Z,11.52
2023-03-02T16:50:17.100Z,12.18
2023-03-02T16:52:44.271Z,13.02
2023-03-02T16:55:17.292Z,12.70
2023-03-02T16:57:43.862Z,12.38
2023-03-02T17:00:13.363Z,12.60
2023-03-02T17:02:40.051Z,12.65
2023-03-02T17:05:06.854Z,12.15
2023-03-02T17:07:33.415Z,13.23
2023-03-02T17:09:59.976Z,14.15
2023-03-02T17:12:26.573Z,15.13
2023-03-02T17:14:53.141Z,14.75
2023-03-02T17:17:19.793Z,15.00
2023-03-02T17:19:46.336Z,16.08
2023-03-02T17:22:12.996Z,16.05
2023-03-02T17:24:39.655Z,16.10
2023-03-02T17:27:15.901Z,15.65
2023-03-02T17:29:49.275Z,16.52
2023-03-02T17:32:15.925Z,15.50
2023-03-02T17:34:43.385Z,16.15
2023-03-02T17:37:09.977Z,16.17
2023-03-02T17:39:36.627Z,15.10
2023-03-02T17:42:03.290Z,16.40
2023-03-02T17:44:29.858Z,14.98
2023-03-02T17:46:56.536Z,15.13
2023-03-02T17:49:23.094Z,14.77
2023-03-02T17:51:49.828Z,15.00
2023-03-02T17:54:16.389Z,15.38
2023-03-02T17:56:42.994Z,15.73
2023-03-02T17:59:10.456Z,14.15
2023-03-02T18:01:37.032Z,14.82
2023-03-02T18:04:03.761Z,14.63
2023-03-02T18:06:30.345Z,16.08
2023-03-02T18:08:57.010Z,14.98
2023-03-02T18:11:24.756Z,15.70
2023-03-02T18:13:54.883Z,15.65
2023-03-02T18:16:23.093Z,15.55
2023-03-02T18:18:53.479Z,16.55
2023-03-02T18:21:21.121Z,16.45
2023-03-02T18:23:47.754Z,18.23
2023-03-02T18:26:14.977Z,16.48
2023-03-02T18:28:41.691Z,17.95
2023-03-02T18:31:08.740Z,17.33
2023-03-02T18:33:37.450Z,17.73
2023-03-02T18:36:05.599Z,16.42
2023-03-02T18:38:33.650Z,15.27
2023-03-02T18:41:03.023Z,15.85
2023-03-02T18:43:34.783Z,14.98
2023-03-02T18:46:05.355Z,14.93
2023-03-02T18:48:32.571Z,15.90
2023-03-02T18:50:59.402Z,16.35
2023-03-02T18:53:27.023Z,16.70
2023-03-02T18:55:56.698Z,27.50
2023-03-02T18:58:25.367Z,24.55
2023-03-02T19:00:53.710Z,34.25
2023-03-02T19:03:20.988Z,19.05
2023-03-02T19:05:47.587Z,17.80
2023-03-02T19:08:14.232Z,18.42
2023-03-02T19:10:42.417Z,16.17
2023-03-02T19:13:11.629Z,14.27
2023-03-02T19:15:41.537Z,15.43
2023-03-02T19:18:08.402Z,15.45
2023-03-02T19:20:35.296Z,15.48
2023-03-02T19:23:01.955Z,15.18
2023-03-02T19:25:28.685Z,15.27
2023-03-02T19:27:55.261Z,15.20
2023-03-02T19:30:24.645Z,13.95
2023-03-02T19:32:54.037Z,14.55
2023-03-02T19:35:22.814Z,14.68
2023-03-02T19:37:49.850Z,15.48
2023-03-02T19:40:19.220Z,14.05
2023-03-02T19:42:47.487Z,13.68
2023-03-02T19:45:23.576Z,12.82
2023-03-02T19:47:50.125Z,12.60
2023-03-02T19:50:19.005Z,12.60
2023-03-02T19:52:45.615Z,12.40
2023-03-02T19:55:14.100Z,12.55
2023-03-02T19:57:40.898Z,12.98
2023-03-02T20:00:13.301Z,12.45
2023-03-02T20:02:40.847Z,11.35
2023-03-02T20:05:11.073Z,13.23
2023-03-02T20:10:35.950Z,12.23
2023-03-02T20:13:03.554Z,13.30
2023-03-02T20:15:32.049Z,13.02
2023-03-02T20:17:59.528Z,12.75
2023-03-02T20:20:27.169Z,12.52
2023-03-02T20:22:54.789Z,13.63
2023-03-02T20:25:21.770Z,12.80
2023-03-02T20:27:49.385Z,12.63
2023-03-02T20:30:39.411Z,13.60
2023-03-02T20:33:07.245Z,13.88
2023-03-02T20:35:35.106Z,12.38
2023-03-02T20:38:05.497Z,13.70
2023-03-02T20:40:32.483Z,13.20
2023-03-02T20:42:59.168Z,12.85
2023-03-02T20:45:25.787Z,12.70
2023-03-02T20:51:37.181Z,10.77
2023-03-02T20:54:04.358Z,10.63
2023-03-02T20:56:30.999Z,10.35
2023-03-02T20:58:58.012Z,11.68
2023-03-02T21:01:24.979Z,9.88
2023-03-02T21:03:51.721Z,11.23
2023-03-02T21:06:18.978Z,10.52
2023-03-02T21:08:46.124Z,11.25
2023-03-02T21:11:15.813Z,10.48
2023-03-02T21:13:45.889Z,10.85
2023-03-02T21:16:17.128Z,10.23
2023-03-02T21:18:57.992Z,11.30
2023-03-02T21:21:40.392Z,10.90
2023-03-02T21:24:09.208Z,10.52
2023-03-02T21:26:36.677Z,9.65
2023-03-02T21:29:05.290Z,10.55
2023-03-02T21:31:31.991Z,10.50
2023-03-02T21:34:00.203Z,10.15
2023-03-02T21:36:27.139Z,10.10
2023-03-02T21:38:53.874Z,10.32
2023-03-02T21:41:20.499Z,9.32
2023-03-02T21:43:47.829Z,9.18
2023-03-02T21:46:16.750Z,9.65
2023-03-02T21:48:43.898Z,9.15
2023-03-02T21:51:11.866Z,8.70
2023-03-02T21:53:38.423Z,8.00
2023-03-02T21:56:05.681Z,8.10
2023-03-02T21:58:32.373Z,8.13
2023-03-02T22:00:59.094Z,8.70
2023-03-02T22:03:25.864Z,7.80
2023-03-02T22:05:52.464Z,8.10
2023-03-02T22:08:20.469Z,8.52
2023-03-02T22:10:51.136Z,8.32
2023-03-02T22:13:26.818Z,7.10
2023-03-02T22:16:15.511Z,7.47
2023-03-02T22:18:44.661Z,7.80
2023-03-02T22:21:28.656Z,8.18
2023-03-02T22:24:09.885Z,8.38
2023-03-02T22:26:40.719Z,8.27
2023-03-02T22:29:21.469Z,8.88
2023-03-02T22:31:49.582Z,8.45
2023-03-02T22:34:24.261Z,8.88
2023-03-02T22:36:50.918Z,8.50
2023-03-02T22:39:29.400Z,9.18
2023-03-02T22:42:08.731Z,8.77
2023-03-02T22:44:37.329Z,8.48
2023-03-02T22:47:20.346Z,8.75
2023-03-02T22:49:56.132Z,8.27
2023-03-02T22:52:26.071Z,8.98
2023-03-02T22:54:55.183Z,9.57
2023-03-02T22:57:33.486Z,9.38
2023-03-02T23:00:32.663Z,9.15
2023-03-02T23:03:01.364Z,9.15
2023-03-02T23:05:33.930Z,9.60
2023-03-02T23:08:19.722Z,9.57
2023-03-02T23:10:49.283Z,8.65
2023-03-02T23:13:20.119Z,9.10
2023-03-02T23:15:48.985Z,8.90
2023-03-02T23:18:29.053Z,9.05
2023-03-02T23:20:58.409Z,10.32
2023-03-02T23:23:28.895Z,9.27
2023-03-02T23:25:59.079Z,9.98
2023-03-02T23:28:26.154Z,9.38
2023-03-02T23:30:54.674Z,9.05
2023-03-02T23:33:24.040Z,10.07
2023-03-02T23:35:53.753Z,9.90
2023-03-02T23:38:22.978Z,9.15
2023-03-02T23:40:52.323Z,10.07
2023-03-02T23:43:21.893Z,9.52
2023-03-02T23:45:51.549Z,10.52
2023-03-02T23:48:20.980Z,8.85
2023-03-02T23:50:52.166Z,9.00
2023-03-02T23:53:22.596Z,9.07
2023-03-02T23:55:53.382Z,9.02
2023-03-02T23:58:25.152Z,8.63
